createdAt,value
2018-07-05T17:24:53.400Z,1003.63
2018-07-05T17:25:54.794Z,1003.63
2018-07-05T17:26:56.142Z,1003.62
2018-07-05T17:27:57.524Z,1003.61
2018-07-05T17:28:58.931Z,1003.70
2018-07-05T17:30:00.334Z,1003.68
2018-07-05T17:31:01.720Z,1003.67
2018-07-05T17:32:03.214Z,1003.67
2018-07-05T17:33:04.477Z,1003.71
2018-07-05T17:34:05.877Z,1003.72
2018-07-05T17:35:07.275Z,1003.74
2018-07-05T17:36:08.683Z,1003.80
2018-07-05T17:37:10.071Z,1003.76
2018-07-05T17:38:11.476Z,1003.76
2018-07-05T17:39:12.876Z,1003.81
2018-07-05T17:40:14.288Z,1003.75
2018-07-05T17:41:15.704Z,1003.78
2018-07-05T17:42:17.097Z,1003.80
2018-07-05T17:43:18.508Z,1003.82
2018-07-05T17:44:19.903Z,1003.80
2018-07-05T17:45:21.240Z,1003.85
2018-07-05T17:46:22.652Z,1003.83
2018-07-05T17:47:24.031Z,1003.88
2018-07-05T17:48:25.428Z,1003.90
2018-07-05T17:49:26.825Z,1003.86
2018-07-05T17:50:28.230Z,1003.88
2018-07-05T17:51:29.594Z,1003.95
2018-07-05T17:52:30.936Z,1003.92
2018-07-05T17:53:32.338Z,1003.92
2018-07-05T17:54:33.784Z,1003.91
2018-07-05T17:55:35.192Z,1003.96
2018-07-05T17:56:36.631Z,1003.90
2018-07-05T17:57:38.645Z,1003.90
2018-07-05T17:58:40.032Z,1003.88
2018-07-05T17:59:41.383Z,1003.90
2018-07-05T18:00:42.755Z,1003.89
2018-07-05T18:01:44.156Z,1003.87
2018-07-05T18:02:45.570Z,1003.91
2018-07-05T18:03:46.966Z,1003.91
2018-07-05T18:04:48.362Z,1003.95
2018-07-05T18:05:49.779Z,1003.92
2018-07-05T18:06:51.185Z,1003.85
2018-07-05T18:07:52.555Z,1003.94
2018-07-05T18:08:53.969Z,1003.96
2018-07-05T18:09:55.316Z,1003.92
2018-07-05T18:10:56.723Z,1003.95
2018-07-05T18:11:58.153Z,1003.96
2018-07-05T18:12:59.530Z,1003.94
2018-07-05T18:14:00.950Z,1003.98
2018-07-05T18:15:02.325Z,1003.96
2018-07-05T18:16:03.745Z,1003.97
2018-07-05T18:17:05.183Z,1003.98
2018-07-05T18:18:06.599Z,1003.96
2018-07-05T18:19:08.011Z,1003.94
2018-07-05T18:20:09.339Z,1004.01
2018-07-05T18:21:10.761Z,1004.03
2018-07-05T18:22:12.185Z,1004.02
2018-07-05T18:23:14.612Z,1004.04
2018-07-05T18:24:16.049Z,1004.03
2018-07-05T18:25:18.016Z,1004.05
2018-07-05T18:26:19.479Z,1004.08
2018-07-05T18:27:20.874Z,1004.01
2018-07-05T18:28:23.854Z,1004.03
2018-07-05T18:29:25.835Z,1004.06
2018-07-05T18:30:28.370Z,1004.06
2018-07-05T18:31:29.873Z,1004.03
2018-07-05T18:32:31.287Z,1004.07
2018-07-05T18:33:33.509Z,1004.08
2018-07-05T18:34:34.935Z,1004.12
2018-07-05T18:35:36.939Z,1004.11
2018-07-05T18:36:39.038Z,1004.12
2018-07-05T18:37:42.442Z,1004.23
2018-07-05T18:38:44.774Z,1004.25
2018-07-05T18:39:46.821Z,1004.21
2018-07-05T18:40:48.990Z,1004.20
2018-07-05T18:41:52.034Z,1004.18
2018-07-05T18:42:54.373Z,1004.20
2018-07-05T18:43:58.541Z,1004.26
2018-07-05T18:45:01.286Z,1004.23
2018-07-05T18:46:02.833Z,1004.23
2018-07-05T18:47:08.960Z,1004.27
2018-07-05T18:48:09.958Z,1004.27
2018-07-05T18:49:12.364Z,1004.30
2018-07-05T18:50:18.188Z,1004.31
2018-07-05T18:51:19.695Z,1004.31
2018-07-05T18:52:21.716Z,1004.33
2018-07-05T18:53:23.209Z,1004.29
2018-07-05T18:54:25.540Z,1004.38
2018-07-05T18:55:29.258Z,1004.38
2018-07-05T18:56:32.945Z,1004.38
2018-07-05T18:57:35.283Z,1004.41
2018-07-05T18:58:38.127Z,1004.43
2018-07-05T18:59:41.706Z,1004.42
2018-07-05T19:00:43.793Z,1004.41
2018-07-05T19:01:46.137Z,1004.38
2018-07-05T19:02:50.980Z,1004.42
2018-07-05T19:03:56.092Z,1004.44
2018-07-05T19:05:01.050Z,1004.48
2018-07-05T19:06:02.516Z,1004.52
2018-07-05T19:07:04.033Z,1004.50
2018-07-05T19:08:07.560Z,1004.51
2018-07-05T19:09:09.690Z,1004.55
2018-07-05T19:10:13.534Z,1004.59
2018-07-05T19:11:15.840Z,1004.56
2018-07-05T19:12:19.447Z,1004.60
2018-07-05T19:13:23.549Z,1004.60
2018-07-05T19:14:28.291Z,1004.60
2018-07-05T19:15:31.885Z,1004.64
2018-07-05T19:16:34.741Z,1004.65
2018-07-05T19:17:36.279Z,1004.72
2018-07-05T19:18:39.964Z,1004.74
2018-07-05T19:19:42.952Z,1004.73
2018-07-05T19:20:45.128Z,1004.77
2018-07-05T19:21:48.488Z,1004.79
2018-07-05T19:22:50.571Z,1004.78
2018-07-05T19:23:53.452Z,1004.79
2018-07-05T19:24:55.181Z,1004.82
2018-07-05T19:25:59.480Z,1004.83
2018-07-05T19:27:01.456Z,1004.86
2018-07-05T19:28:07.048Z,1004.87
2018-07-05T19:29:10.626Z,1004.90
2018-07-05T19:30:13.068Z,1004.89
2018-07-05T19:31:15.485Z,1004.89
2018-07-05T19:32:16.950Z,1004.89
2018-07-05T19:33:19.686Z,1004.89
2018-07-05T19:34:22.276Z,1004.90
2018-07-05T19:35:25.107Z,1004.90
2018-07-05T19:36:28.498Z,1004.87
2018-07-05T19:37:30.944Z,1004.88
2018-07-05T19:38:34.304Z,1004.92
2018-07-05T19:39:39.654Z,1004.91
2018-07-05T19:40:42.597Z,1004.93
2018-07-05T19:41:44.960Z,1004.96
2018-07-05T19:42:47.229Z,1004.95
2018-07-05T19:43:49.868Z,1005.01
2018-07-05T19:44:53.466Z,1005.02
2018-07-05T19:45:59.081Z,1005.04
2018-07-05T19:47:01.356Z,1005.06
2018-07-05T19:48:04.249Z,1005.05
2018-07-05T19:49:09.600Z,1005.07
2018-07-05T19:50:12.687Z,1005.08
2018-07-05T19:51:15.157Z,1005.07
2018-07-05T19:52:18.009Z,1005.11
2018-07-05T19:53:21.300Z,1005.11
2018-07-05T19:54:27.159Z,1005.13
2018-07-05T19:55:32.192Z,1005.08
2018-07-05T19:56:34.963Z,1005.13
2018-07-05T19:57:38.214Z,1005.16
2018-07-05T19:58:42.303Z,1005.15
2018-07-05T19:59:46.071Z,1005.17
2018-07-05T20:00:49.477Z,1005.14
2018-07-05T20:01:52.037Z,1005.17
2018-07-05T20:02:54.245Z,1005.21
2018-07-05T20:03:55.764Z,1005.18
2018-07-05T20:04:57.992Z,1005.20
2018-07-05T20:06:02.677Z,1005.19
2018-07-05T20:07:05.864Z,1005.16
2018-07-05T20:08:10.146Z,1005.19
2018-07-05T20:09:15.825Z,1005.19
2018-07-05T20:10:18.918Z,1005.20
2018-07-05T20:11:20.939Z,1005.18
2018-07-05T20:12:23.972Z,1005.19
2018-07-05T20:13:25.842Z,1005.18
2018-07-05T20:14:27.818Z,1005.17
2018-07-05T20:15:32.611Z,1005.16
2018-07-05T20:16:37.480Z,1005.10
2018-07-05T20:17:39.584Z,1005.11
2018-07-05T20:18:45.075Z,1005.13
2018-07-05T20:19:50.695Z,1005.11
2018-07-05T20:20:54.490Z,1005.10
2018-07-05T20:21:57.336Z,1005.08
2018-07-05T20:22:59.358Z,1005.11
2018-07-05T20:24:02.477Z,1005.07
2018-07-05T20:25:05.398Z,1005.13
2018-07-05T20:26:06.851Z,1005.12
2018-07-05T20:27:10.687Z,1005.13
2018-07-05T20:28:13.978Z,1005.12
2018-07-05T20:29:14.944Z,1005.11
2018-07-05T20:30:18.881Z,1005.15
2018-07-05T20:31:20.268Z,1005.17
2018-07-05T20:32:27.244Z,1005.15
2018-07-05T20:33:30.403Z,1005.17
2018-07-05T20:34:34.206Z,1005.17
2018-07-05T20:35:36.984Z,1005.17
2018-07-05T20:36:38.039Z,1005.13
2018-07-05T20:37:40.720Z,1005.13
2018-07-05T20:38:43.575Z,1005.14
2018-07-05T20:39:47.666Z,1005.17
2018-07-05T20:40:51.260Z,1005.18
2018-07-05T20:41:52.782Z,1005.16
2018-07-05T20:42:55.631Z,1005.13
2018-07-05T20:43:58.090Z,1005.10
2018-07-05T20:45:01.059Z,1005.07
2018-07-05T20:46:04.052Z,1005.11
2018-07-05T20:47:07.711Z,1005.08
2018-07-05T20:48:09.812Z,1005.07
2018-07-05T20:49:12.276Z,1005.12
2018-07-05T20:50:13.697Z,1005.14
2018-07-05T20:51:16.483Z,1005.15
2018-07-05T20:52:18.491Z,1005.16
2018-07-05T20:53:21.988Z,1005.17
2018-07-05T20:54:22.558Z,1005.21
2018-07-05T20:55:25.976Z,1005.20
2018-07-05T20:56:27.929Z,1005.21
2018-07-05T20:57:32.203Z,1005.20
2018-07-05T20:58:34.186Z,1005.23
2018-07-05T20:59:36.509Z,1005.27
2018-07-05T21:00:39.330Z,1005.23
2018-07-05T21:01:41.615Z,1005.22
2018-07-05T21:02:43.038Z,1005.24
2018-07-05T21:03:45.440Z,1005.25
2018-07-05T21:04:46.878Z,1005.24
2018-07-05T21:05:49.123Z,1005.27
2018-07-05T21:06:50.571Z,1005.24
2018-07-05T21:07:51.901Z,1005.21
2018-07-05T21:08:54.078Z,1005.23
2018-07-05T21:09:55.430Z,1005.20
2018-07-05T21:10:56.772Z,1005.20
2018-07-05T21:11:58.131Z,1005.18
2018-07-05T21:12:59.480Z,1005.18
2018-07-05T21:14:00.869Z,1005.15
2018-07-05T21:15:02.229Z,1005.18
2018-07-05T21:16:03.624Z,1005.18
2018-07-05T21:17:04.970Z,1005.21
2018-07-05T21:18:07.332Z,1005.14
2018-07-05T21:19:08.669Z,1005.21
2018-07-05T21:20:10.059Z,1005.18
2018-07-05T21:21:11.454Z,1005.23
2018-07-05T21:22:12.844Z,1005.25
2018-07-05T21:23:14.242Z,1005.25
2018-07-05T21:24:15.628Z,1005.26
2018-07-05T21:25:17.023Z,1005.27
2018-07-05T21:26:18.431Z,1005.25
2018-07-05T21:27:19.792Z,1005.25
2018-07-05T21:28:21.194Z,1005.28
2018-07-05T21:29:22.586Z,1005.28
2018-07-05T21:30:23.997Z,1005.27
2018-07-05T21:31:25.378Z,1005.28
2018-07-05T21:32:26.771Z,1005.28
2018-07-05T21:33:29.090Z,1005.28
2018-07-05T21:34:30.466Z,1005.28
2018-07-05T21:35:31.861Z,1005.34
2018-07-05T21:36:33.246Z,1005.31
2018-07-05T21:37:34.626Z,1005.30
2018-07-05T21:38:36.012Z,1005.35
2018-07-05T21:39:37.406Z,1005.32
2018-07-05T21:40:38.788Z,1005.39
2018-07-05T21:41:40.182Z,1005.39
2018-07-05T21:42:41.553Z,1005.38
2018-07-05T21:43:42.943Z,1005.38
2018-07-05T21:44:44.325Z,1005.38
2018-07-05T21:45:45.724Z,1005.33
2018-07-05T21:46:47.111Z,1005.36
2018-07-05T21:47:48.520Z,1005.36
2018-07-05T21:48:49.898Z,1005.39
2018-07-05T21:49:52.028Z,1005.39
2018-07-05T21:50:53.416Z,1005.38
2018-07-05T21:51:54.794Z,1005.38
2018-07-05T21:52:56.188Z,1005.36
2018-07-05T21:53:57.571Z,1005.40
2018-07-05T21:54:58.963Z,1005.42
2018-07-05T21:56:00.358Z,1005.40
2018-07-05T21:57:01.743Z,1005.41
2018-07-05T21:58:03.134Z,1005.41
2018-07-05T21:59:04.522Z,1005.42
2018-07-05T22:00:05.917Z,1005.40
2018-07-05T22:01:07.308Z,1005.46
2018-07-05T22:02:09.291Z,1005.47
2018-07-05T22:03:10.677Z,1005.47
2018-07-05T22:04:12.073Z,1005.49
2018-07-05T22:05:13.452Z,1005.51
2018-07-05T22:06:14.829Z,1005.52
2018-07-05T22:07:16.222Z,1005.54
2018-07-05T22:08:17.602Z,1005.54
2018-07-05T22:09:18.984Z,1005.56
2018-07-05T22:10:20.373Z,1005.56
2018-07-05T22:11:21.751Z,1005.56
2018-07-05T22:12:23.139Z,1005.54
2018-07-05T22:13:25.065Z,1005.58
2018-07-05T22:14:26.443Z,1005.61
2018-07-05T22:15:27.830Z,1005.63
2018-07-05T22:16:29.210Z,1005.65
2018-07-05T22:17:30.601Z,1005.66
2018-07-05T22:18:31.986Z,1005.71
2018-07-05T22:19:33.362Z,1005.69
2018-07-05T22:20:34.774Z,1005.69
2018-07-05T22:21:36.158Z,1005.69
2018-07-05T22:22:37.550Z,1005.72
2018-07-05T22:23:38.944Z,1005.69
2018-07-05T22:24:40.324Z,1005.66
2018-07-05T22:25:41.734Z,1005.65
2018-07-05T22:26:43.100Z,1005.66
2018-07-05T22:27:44.492Z,1005.65
2018-07-05T22:28:45.876Z,1005.65
2018-07-05T22:29:47.264Z,1005.65
2018-07-05T22:30:48.642Z,1005.64
2018-07-05T22:31:50.038Z,1005.65
2018-07-05T22:32:51.427Z,1005.68
2018-07-05T22:33:52.810Z,1005.66
2018-07-05T22:34:54.199Z,1005.69
2018-07-05T22:35:55.587Z,1005.68
2018-07-05T22:36:56.971Z,1005.66
2018-07-05T22:37:58.354Z,1005.65
2018-07-05T22:38:59.747Z,1005.65
2018-07-05T22:40:01.145Z,1005.63
2018-07-05T22:41:02.541Z,1005.63
2018-07-05T22:42:03.915Z,1005.64
2018-07-05T22:43:05.301Z,1005.59
2018-07-05T22:44:06.699Z,1005.64
2018-07-05T22:45:08.083Z,1005.64
2018-07-05T22:46:09.481Z,1005.63
2018-07-05T22:47:10.856Z,1005.63
2018-07-05T22:48:12.239Z,1005.65
2018-07-05T22:49:14.292Z,1005.63
2018-07-05T22:50:15.679Z,1005.62
2018-07-05T22:51:17.053Z,1005.65
2018-07-05T22:52:18.441Z,1005.66
2018-07-05T22:53:19.828Z,1005.65
2018-07-05T22:54:21.216Z,1005.66
2018-07-05T22:55:22.602Z,1005.68
2018-07-05T22:56:23.994Z,1005.69
2018-07-05T22:57:25.379Z,1005.72
2018-07-05T22:58:26.766Z,1005.69
2018-07-05T22:59:28.151Z,1005.74
2018-07-05T23:00:29.547Z,1005.73
2018-07-05T23:01:30.927Z,1005.71
2018-07-05T23:02:32.311Z,1005.73
2018-07-05T23:03:33.701Z,1005.73
2018-07-05T23:04:35.099Z,1005.73
2018-07-05T23:05:37.033Z,1005.70
2018-07-05T23:06:37.824Z,1005.71
2018-07-05T23:07:39.207Z,1005.73
2018-07-05T23:08:40.592Z,1005.75
2018-07-05T23:09:41.997Z,1005.73
2018-07-05T23:10:43.366Z,1005.73
2018-07-05T23:11:44.753Z,1005.77
2018-07-05T23:12:46.145Z,1005.75
2018-07-05T23:13:47.526Z,1005.77
2018-07-05T23:14:48.915Z,1005.80
2018-07-05T23:15:50.311Z,1005.78
2018-07-05T23:16:51.700Z,1005.83
2018-07-05T23:17:53.092Z,1005.80
2018-07-05T23:18:54.476Z,1005.82
2018-07-05T23:19:55.847Z,1005.84
2018-07-05T23:20:57.247Z,1005.75
2018-07-05T23:21:58.633Z,1005.77
2018-07-05T23:23:00.029Z,1005.76
2018-07-05T23:24:01.409Z,1005.74
2018-07-05T23:25:02.793Z,1005.71
2018-07-05T23:26:04.177Z,1005.73
2018-07-05T23:27:05.571Z,1005.72
2018-07-05T23:28:06.958Z,1005.71
2018-07-05T23:29:08.352Z,1005.71
2018-07-05T23:30:09.722Z,1005.73
2018-07-05T23:31:11.114Z,1005.69
2018-07-05T23:32:12.501Z,1005.70
2018-07-05T23:33:13.892Z,1005.62
2018-07-05T23:34:15.268Z,1005.63
